Time;durP1;ratioP1;P1;durP2;ratioP2;P2;SDS_P1;SDS_P2;PMS_P1;PMS_P2;Temp;Humidity;BMP_temperature;BMP_pressure;BME280_temperature;BME280_humidity;BME280_pressure;Samples;Min_cycle;Max_cycle;Signal;HPM_P1;HPM_P2
2022/09/25 00:03:56;;;;;;;11.25;7.50;;;7.70;99.90;;;;;;8254957;28;20054;-78
2022/09/25 00:07:57;;;;;;;12.18;7.25;;;7.50;99.90;;;;;;8246693;28;20031;-78
2022/09/25 00:11:57;;;;;;;12.80;7.50;;;7.50;99.90;;;;;;8237143;28;20027;-80
2022/09/25 00:15:58;;;;;;;28.55;6.97;;;7.30;99.90;;;;;;8237175;28;20029;-78
2022/09/25 00:19:59;;;;;;;14.45;6.97;;;7.40;99.90;;;;;;8246269;28;20110;-78
2022/09/25 00:24:02;;;;;;;42.40;7.70;;;7.40;99.90;;;;;;8241280;28;20022;-78
2022/09/25 00:28:03;;;;;;;109.50;7.25;;;7.40;99.90;;;;;;8241988;28;20033;-78
2022/09/25 00:32:09;;;;;;;39.88;6.75;;;7.50;99.90;;;;;;8235758;28;20022;-77
2022/09/25 00:36:09;;;;;;;11.38;6.38;;;7.50;99.90;;;;;;8243539;28;20051;-78
2022/09/25 00:40:10;;;;;;;11.88;6.38;;;7.60;99.90;;;;;;8250770;28;20027;-78
2022/09/25 00:44:51;;;;;;;15.05;8.43;;;7.80;99.90;;;;;;8241024;28;20037;-78
2022/09/25 00:49:14;;;;;;;12.30;8.53;;;8.00;99.90;;;;;;8220652;28;1044775;-78
2022/09/25 00:53:26;;;;;;;13.40;8.85;;;8.20;99.90;;;;;;8250566;28;20033;-78
2022/09/25 00:57:29;;;;;;;14.05;8.75;;;8.30;99.90;;;;;;8250692;28;20050;-78
2022/09/25 01:01:30;;;;;;;14.18;10.07;;;8.50;99.90;;;;;;8253740;28;20031;-78
2022/09/25 01:05:34;;;;;;;15.63;10.65;;;8.60;99.90;;;;;;8260089;28;20054;-78
2022/09/25 01:09:35;;;;;;;16.40;10.48;;;8.60;99.90;;;;;;8248218;28;20026;-78
2022/09/25 01:13:37;;;;;;;14.68;9.48;;;8.70;99.90;;;;;;8252214;28;20054;-78
2022/09/25 01:17:44;;;;;;;16.10;10.45;;;8.70;99.90;;;;;;8234585;28;20026;-78
2022/09/25 01:22:09;;;;;;;17.90;10.45;;;8.80;99.90;;;;;;8245391;28;20054;-78
2022/09/25 01:26:38;;;;;;;19.42;10.45;;;8.90;99.90;;;;;;8249559;28;20031;-79
2022/09/25 01:30:43;;;;;;;20.65;9.82;;;8.90;99.90;;;;;;8245837;28;20110;-78
2022/09/25 01:35:05;;;;;;;20.70;10.48;;;9.00;99.90;;;;;;8262751;28;20080;-78
2022/09/25 01:39:31;;;;;;;22.33;10.20;;;9.00;99.90;;;;;;8252804;28;20162;-78
2022/09/25 01:43:42;;;;;;;31.63;10.25;;;9.10;99.90;;;;;;8259665;28;20506;-78
2022/09/25 01:47:47;;;;;;;28.45;10.95;;;9.00;99.90;;;;;;8241937;28;20018;-78
2022/09/25 01:51:52;;;;;;;19.15;11.30;;;9.10;99.90;;;;;;8241282;28;20030;-78
2022/09/25 01:55:59;;;;;;;30.60;11.02;;;9.20;99.90;;;;;;8241575;28;20030;-78
2022/09/25 02:00:02;;;;;;;28.92;11.77;;;9.30;99.90;;;;;;8250347;28;20045;-79
2022/09/25 02:04:17;;;;;;;25.83;12.02;;;9.30;99.90;;;;;;8246216;28;20019;-78
2022/09/25 02:08:30;;;;;;;31.13;11.35;;;9.40;99.90;;;;;;8246732;28;20122;-79
2022/09/25 02:12:39;;;;;;;39.50;12.00;;;9.40;99.90;;;;;;8256801;28;20491;-78
2022/09/25 02:16:43;;;;;;;48.87;12.17;;;9.50;99.90;;;;;;8242673;28;20023;-78
2022/09/25 02:20:58;;;;;;;24.23;12.02;;;9.40;99.90;;;;;;8251848;28;20262;-79
2022/09/25 02:25:11;;;;;;;48.83;12.45;;;9.40;99.90;;;;;;8233466;28;20688;-81
2022/09/25 02:29:12;;;;;;;29.90;11.88;;;9.40;99.90;;;;;;8233631;28;20081;-78
2022/09/25 02:33:12;;;;;;;35.33;12.98;;;9.40;99.90;;;;;;8241276;28;20031;-78
2022/09/25 02:37:17;;;;;;;39.00;13.43;;;9.50;99.90;;;;;;8253846;28;20073;-77
2022/09/25 02:41:51;;;;;;;46.08;14.73;;;9.70;99.90;;;;;;8241288;28;20022;-78
2022/09/25 02:46:18;;;;;;;51.40;15.88;;;9.60;99.90;;;;;;8234468;28;20509;-78
2022/09/25 02:50:29;;;;;;;48.05;15.73;;;9.60;99.90;;;;;;8250931;28;20093;-78
2022/09/25 02:54:37;;;;;;;35.92;15.38;;;9.60;99.90;;;;;;8253886;28;20565;-78
2022/09/25 02:58:49;;;;;;;35.53;15.18;;;9.70;99.90;;;;;;8237604;28;20015;-78
2022/09/25 03:02:58;;;;;;;28.33;13.85;;;9.70;99.90;;;;;;8243382;28;20078;-77
2022/09/25 03:06:58;;;;;;;35.90;13.75;;;10.00;99.90;;;;;;8256462;28;20050;-78
2022/09/25 03:10:59;;;;;;;36.45;14.43;;;10.00;99.90;;;;;;8234554;28;20034;-78
2022/09/25 03:15:00;;;;;;;42.70;15.45;;;10.00;99.90;;;;;;8248811;28;20053;-78
2022/09/25 03:19:01;;;;;;;27.08;14.35;;;10.00;99.90;;;;;;8254406;28;20019;-78
2022/09/25 03:23:02;;;;;;;25.98;14.68;;;10.10;99.90;;;;;;8241901;28;20019;-78
2022/09/25 03:27:02;;;;;;;30.45;14.93;;;10.00;99.90;;;;;;8260141;28;20034;-78
2022/09/25 03:31:06;;;;;;;42.83;15.63;;;9.90;99.90;;;;;;8238877;28;20495;-78
2022/09/25 03:35:07;;;;;;;57.45;16.40;;;9.90;99.90;;;;;;8231881;28;20034;-78
2022/09/25 03:39:09;;;;;;;43.17;15.45;;;10.00;99.90;;;;;;8245294;28;20023;-78
2022/09/25 03:43:10;;;;;;;33.35;15.13;;;10.30;99.90;;;;;;8262597;28;20379;-78
2022/09/25 03:47:11;;;;;;;43.83;16.35;;;10.30;99.90;;;;;;8244062;28;20026;-79
2022/09/25 03:51:12;;;;;;;58.78;16.15;;;10.10;99.90;;;;;;8240910;28;20038;-78
2022/09/25 03:55:13;;;;;;;84.65;16.30;;;10.10;99.90;;;;;;8240651;28;20513;-79
2022/09/25 03:59:13;;;;;;;40.60;14.75;;;10.30;99.90;;;;;;8243080;28;20058;-78
2022/09/25 04:03:14;;;;;;;71.70;16.67;;;10.40;99.90;;;;;;8244557;28;20054;-78
2022/09/25 04:07:15;;;;;;;72.20;17.20;;;10.40;99.90;;;;;;8247592;28;20027;-77
2022/09/25 04:11:17;;;;;;;55.08;16.20;;;10.40;99.90;;;;;;8247072;28;20050;-78
2022/09/25 04:15:18;;;;;;;53.00;15.60;;;10.60;99.90;;;;;;8250726;28;20475;-78
2022/09/25 04:19:18;;;;;;;30.33;16.38;;;10.50;99.90;;;;;;8250210;28;20060;-78
2022/09/25 04:23:19;;;;;;;35.97;16.35;;;10.40;99.90;;;;;;8237432;28;20525;-78
2022/09/25 04:27:22;;;;;;;37.90;16.00;;;10.50;99.90;;;;;;8237214;28;20034;-78
2022/09/25 04:31:22;;;;;;;34.25;15.07;;;10.40;99.90;;;;;;8230662;28;20035;-78
2022/09/25 04:35:23;;;;;;;49.88;14.93;;;10.40;99.90;;;;;;8245199;28;20018;-78
2022/09/25 04:39:23;;;;;;;74.63;16.95;;;10.30;99.90;;;;;;8238724;28;20031;-78
2022/09/25 04:43:25;;;;;;;45.13;16.40;;;10.30;99.90;;;;;;8233511;28;20026;-78
2022/09/25 04:47:30;;;;;;;53.67;16.45;;;10.20;99.90;;;;;;8253912;28;20023;-79
2022/09/25 04:51:30;;;;;;;45.97;15.90;;;10.30;99.90;;;;;;8245104;28;20557;-78
2022/09/25 04:55:31;;;;;;;26.20;13.48;;;10.30;99.90;;;;;;8248246;28;20050;-78
2022/09/25 04:59:31;;;;;;;25.38;14.48;;;10.20;99.90;;;;;;8243593;28;20475;-78
2022/09/25 05:03:32;;;;;;;53.30;15.13;;;10.10;99.90;;;;;;8247306;28;20050;-78
2022/09/25 05:07:34;;;;;;;68.70;15.25;;;10.30;99.90;;;;;;8243486;28;20620;-79
2022/09/25 05:11:34;;;;;;;76.80;15.32;;;10.30;99.90;;;;;;8244643;28;20513;-78
2022/09/25 05:15:35;;;;;;;27.02;13.73;;;10.50;99.90;;;;;;8247128;28;20034;-78
2022/09/25 05:19:36;;;;;;;41.80;13.15;;;10.70;99.90;;;;;;8240185;28;20493;-78
2022/09/25 05:23:37;;;;;;;34.15;12.60;;;10.60;99.90;;;;;;8241861;28;20482;-78
2022/09/25 05:27:37;;;;;;;35.50;12.70;;;10.40;99.90;;;;;;8240171;28;20046;-78
2022/09/25 05:31:38;;;;;;;52.65;11.77;;;10.40;99.90;;;;;;8237443;28;20047;-78
2022/09/25 05:35:38;;;;;;;42.92;12.05;;;10.50;99.90;;;;;;8240133;28;20045;-78
2022/09/25 05:39:39;;;;;;;45.15;11.90;;;10.70;99.90;;;;;;8237792;28;20027;-78
2022/09/25 05:43:42;;;;;;;30.20;11.93;;;10.80;99.90;;;;;;8247960;28;20022;-79
2022/09/25 05:47:43;;;;;;;26.70;10.80;;;10.70;99.90;;;;;;8246424;28;20666;-78
2022/09/25 05:51:43;;;;;;;26.27;10.52;;;10.70;99.90;;;;;;8244404;28;20434;-79
2022/09/25 05:55:56;;;;;;;20.13;11.10;;;10.60;99.90;;;;;;8246651;28;20023;-78
2022/09/25 05:59:58;;;;;;;26.52;11.18;;;10.70;99.90;;;;;;8249127;28;20368;-80
2022/09/25 06:03:58;;;;;;;23.40;10.93;;;10.50;99.90;;;;;;8244604;28;20029;-79
2022/09/25 06:07:59;;;;;;;28.52;11.77;;;10.40;99.90;;;;;;8239664;28;20499;-79
2022/09/25 06:11:59;;;;;;;24.33;11.05;;;10.40;99.90;;;;;;8244833;28;20032;-79
2022/09/25 06:16:01;;;;;;;28.83;10.65;;;10.40;99.90;;;;;;8240629;28;20019;-79
2022/09/25 06:20:01;;;;;;;21.40;10.70;;;10.50;99.90;;;;;;8252513;28;20150;-79
2022/09/25 06:24:02;;;;;;;39.22;10.85;;;10.70;99.90;;;;;;8242660;28;20069;-78
2022/09/25 06:28:03;;;;;;;36.50;11.55;;;10.80;99.90;;;;;;8244750;28;20092;-79
2022/09/25 06:32:04;;;;;;;25.13;12.18;;;11.00;99.90;;;;;;8241541;28;20030;-79
2022/09/25 06:36:05;;;;;;;24.83;11.70;;;10.90;99.90;;;;;;8238992;28;20125;-78
2022/09/25 06:40:07;;;;;;;22.52;11.88;;;11.00;99.90;;;;;;8251381;28;20014;-78
2022/09/25 06:44:08;;;;;;;20.17;11.18;;;11.00;99.90;;;;;;8239207;28;20042;-79
2022/09/25 06:48:11;;;;;;;29.25;11.20;;;10.90;99.90;;;;;;8244988;28;20211;-79
2022/09/25 06:52:12;;;;;;;21.17;11.05;;;10.80;99.90;;;;;;8238880;28;20031;-79
2022/09/25 06:56:13;;;;;;;24.17;11.48;;;10.90;99.90;;;;;;8242008;28;20113;-78
2022/09/25 07:00:13;;;;;;;30.20;12.18;;;10.70;99.90;;;;;;8250381;28;20031;-78
2022/09/25 07:04:14;;;;;;;23.02;11.82;;;10.50;99.90;;;;;;8248740;28;20035;-77
2022/09/25 07:08:17;;;;;;;24.00;12.50;;;10.80;99.90;;;;;;8244966;28;20026;-79
2022/09/25 07:12:17;;;;;;;23.73;11.82;;;10.80;99.90;;;;;;8243062;28;20081;-78
2022/09/25 07:16:18;;;;;;;26.42;10.73;;;11.00;99.90;;;;;;8244743;28;20077;-78
2022/09/25 07:20:21;;;;;;;29.85;11.30;;;11.20;99.90;;;;;;8240063;28;20041;-78
2022/09/25 07:24:21;;;;;;;20.52;12.00;;;11.30;99.90;;;;;;8240734;28;20030;-78
2022/09/25 07:28:22;;;;;;;18.52;11.15;;;11.10;99.90;;;;;;8245549;28;20041;-78
2022/09/25 07:32:22;;;;;;;26.77;11.75;;;11.30;99.90;;;;;;8236459;28;20026;-78
2022/09/25 07:36:23;;;;;;;22.70;12.27;;;11.20;99.90;;;;;;8249124;28;20018;-78
2022/09/25 07:40:27;;;;;;;28.15;12.77;;;11.40;99.90;;;;;;8251284;28;20033;-78
2022/09/25 07:44:28;;;;;;;24.52;12.90;;;11.30;99.90;;;;;;8252338;28;20018;-78
2022/09/25 07:48:29;;;;;;;29.15;12.65;;;11.30;99.90;;;;;;8247968;28;20061;-78
2022/09/25 07:52:30;;;;;;;24.80;13.70;;;11.40;99.90;;;;;;8244593;28;20027;-78
2022/09/25 07:56:33;;;;;;;34.33;13.32;;;11.50;99.90;;;;;;8250206;28;20019;-78
2022/09/25 08:00:33;;;;;;;27.45;13.70;;;11.40;99.90;;;;;;8232996;28;20033;-78
2022/09/25 08:04:34;;;;;;;26.17;13.70;;;11.40;99.90;;;;;;8247912;28;20402;-78
2022/09/25 08:08:34;;;;;;;30.52;14.13;;;11.50;99.90;;;;;;8249201;28;20026;-78
2022/09/25 08:12:35;;;;;;;29.10;14.02;;;11.40;99.90;;;;;;8251635;28;20458;-77
2022/09/25 08:16:36;;;;;;;29.20;13.20;;;11.60;99.90;;;;;;8242331;28;20023;-78
2022/09/25 08:20:39;;;;;;;24.50;12.95;;;11.70;99.90;;;;;;8240049;28;20026;-78
2022/09/25 08:24:42;;;;;;;30.85;14.38;;;11.80;99.90;;;;;;8247543;28;20026;-78
2022/09/25 08:28:43;;;;;;;22.05;12.55;;;11.70;99.90;;;;;;8257996;28;20029;-80
2022/09/25 08:32:43;;;;;;;22.15;12.00;;;11.80;99.90;;;;;;8243418;28;20054;-79
2022/09/25 08:36:46;;;;;;;20.25;11.45;;;11.90;99.90;;;;;;8237620;28;20033;-78
2022/09/25 08:41:12;;;;;;;21.70;12.52;;;12.10;99.90;;;;;;8239625;28;20031;-78
2022/09/25 08:50:21;;;;;;;32.88;16.15;;;12.10;99.90;;;;;;8231489;28;20041;-78
2022/09/25 08:54:28;;;;;;;23.38;12.57;;;12.10;99.90;;;;;;8239933;28;20053;-78
2022/09/25 08:58:32;;;;;;;25.83;12.63;;;12.50;99.90;;;;;;8238979;28;20038;-78
2022/09/25 09:02:40;;;;;;;20.20;11.35;;;13.00;99.90;;;;;;8241354;28;20019;-78
2022/09/25 09:06:42;;;;;;;19.25;11.00;;;13.60;99.90;;;;;;8248201;28;20479;-78
2022/09/25 09:10:50;;;;;;;17.08;10.02;;;14.20;99.90;;;;;;8242881;28;20061;-79
2022/09/25 09:14:58;;;;;;;19.73;11.15;;;14.40;99.90;;;;;;8248736;28;20037;-79
2022/09/25 09:19:02;;;;;;;23.25;14.88;;;14.70;99.90;;;;;;8252234;28;20037;-79
2022/09/25 09:23:04;;;;;;;15.40;10.20;;;15.00;99.90;;;;;;8257414;28;20022;-79
2022/09/25 09:27:25;;;;;;;18.08;10.07;;;14.80;99.90;;;;;;8257582;28;20034;-79
2022/09/25 09:31:29;;;;;;;;;;;14.90;99.90;;;;;;8248680;28;20058;-80
2022/09/25 09:35:42;;;;;;;17.25;10.30;;;14.70;99.90;;;;;;8256318;28;19926;-80
2022/09/25 09:40:10;;;;;;;14.70;8.90;;;14.40;99.90;;;;;;8241343;28;20075;-78
2022/09/25 09:44:50;;;;;;;15.63;10.02;;;14.40;99.90;;;;;;8256372;28;20441;-79
2022/09/25 09:49:11;;;;;;;14.32;9.30;;;14.70;99.90;;;;;;8257627;28;20037;-79
2022/09/25 09:53:39;;;;;;;12.88;7.88;;;14.70;99.90;;;;;;8243068;28;20027;-79
2022/09/25 09:57:45;;;;;;;14.15;9.27;;;14.80;99.90;;;;;;8244775;28;20457;-79
2022/09/25 10:02:12;;;;;;;15.75;9.38;;;15.30;99.90;;;;;;8251843;28;20022;-79
2022/09/25 10:06:15;;;;;;;13.23;8.73;;;15.60;99.90;;;;;;8258503;28;20026;-78
2022/09/25 10:10:17;;;;;;;16.67;10.15;;;15.40;99.90;;;;;;8252725;28;20088;-78
2022/09/25 10:14:20;;;;;;;13.95;9.38;;;14.70;99.90;;;;;;8252574;28;20027;-78
2022/09/25 10:18:26;;;;;;;14.85;10.13;;;14.50;99.90;;;;;;8254288;28;20023;-78
2022/09/25 10:22:35;;;;;;;15.30;9.52;;;14.60;99.90;;;;;;8253995;28;20033;-78
2022/09/25 10:26:38;;;;;;;12.05;8.55;;;14.90;99.90;;;;;;8259528;28;20026;-79
2022/09/25 10:30:45;;;;;;;13.88;8.55;;;15.00;99.90;;;;;;8250570;28;20399;-79
2022/09/25 10:34:51;;;;;;;15.10;9.07;;;15.90;99.90;;;;;;8252877;28;20054;-79
2022/09/25 10:38:52;;;;;;;14.40;9.00;;;16.30;99.90;;;;;;8259261;28;20434;-79
2022/09/25 10:43:17;;;;;;;13.15;8.43;;;16.70;99.90;;;;;;8242779;28;20026;-81
2022/09/25 10:51:36;;;;;;;10.43;8.05;;;17.20;99.90;;;;;;8250160;28;20082;-80
2022/09/25 10:55:45;;;;;;;12.48;8.30;;;17.50;99.90;;;;;;8243734;28;20102;-80
2022/09/25 10:59:50;;;;;;;9.25;6.70;;;17.20;99.90;;;;;;8251500;28;20022;-79
2022/09/25 11:03:54;;;;;;;9.68;6.78;;;18.00;99.90;;;;;;8240462;28;20070;-81
2022/09/25 11:07:59;;;;;;;9.60;7.70;;;18.60;99.90;;;;;;8240714;28;20052;-79
2022/09/25 11:12:19;;;;;;;10.57;6.40;;;18.10;99.90;;;;;;8256003;28;20069;-81
2022/09/25 11:16:19;;;;;;;8.80;6.45;;;17.40;99.90;;;;;;8251450;28;20037;-81
2022/09/25 11:20:28;;;;;;;8.95;6.00;;;16.70;99.90;;;;;;8254758;28;20026;-80
2022/09/25 11:24:52;;;;;;;7.63;5.57;;;17.00;99.90;;;;;;8248048;28;20450;-80
2022/09/25 11:29:04;;;;;;;6.75;5.03;;;17.10;99.90;;;;;;8251168;28;20192;-79
2022/09/25 11:33:22;;;;;;;7.22;5.20;;;18.70;99.90;;;;;;8263035;28;20023;-80
2022/09/25 11:37:56;;;;;;;7.72;5.70;;;19.40;99.90;;;;;;8246972;28;20499;-80
2022/09/25 11:42:13;;;;;;;7.95;5.80;;;18.10;99.90;;;;;;8253761;28;20552;-80
2022/09/25 11:46:42;;;;;;;6.65;5.35;;;17.30;99.90;;;;;;8256345;28;20031;-80
2022/09/25 11:51:27;;;;;;;7.20;5.78;;;17.10;99.90;;;;;;8254900;28;20069;-80
2022/09/25 11:56:05;;;;;;;8.82;6.18;;;17.40;99.90;;;;;;8132539;29;20100;-80
2022/09/25 12:00:16;;;;;;;8.02;5.45;;;17.60;99.90;;;;;;8192775;28;20303;-80
2022/09/25 12:04:38;;;;;;;8.02;6.53;;;17.80;99.90;;;;;;8242023;28;20085;-80
2022/09/25 12:09:14;;;;;;;7.95;5.88;;;18.20;99.90;;;;;;8251477;28;20406;-80
2022/09/25 12:13:19;;;;;;;8.05;6.10;;;18.80;99.90;;;;;;8217124;28;20045;-81
2022/09/25 12:17:31;;;;;;;6.82;5.80;;;18.90;99.90;;;;;;8254086;28;20033;-80
2022/09/25 12:21:46;;;;;;;9.40;6.10;;;19.10;99.90;;;;;;8247587;28;20481;-80
2022/09/25 12:25:58;;;;;;;5.80;4.90;;;19.40;99.90;;;;;;8268609;28;20018;-80
2022/09/25 12:30:06;;;;;;;6.47;4.90;;;19.30;99.90;;;;;;8242130;28;20110;-80
2022/09/25 12:34:10;;;;;;;7.18;4.65;;;20.00;99.90;;;;;;8253739;28;20022;-81
2022/09/25 12:38:27;;;;;;;5.78;4.72;;;21.00;99.90;;;;;;8240176;28;20050;-80
2022/09/25 12:42:49;;;;;;;7.40;4.20;;;21.00;99.90;;;;;;8256830;28;20045;-79
2022/09/25 12:47:25;;;;;;;5.95;4.45;;;19.90;99.90;;;;;;8243756;28;20406;-80
2022/09/25 12:51:39;;;;;;;1.30;1.20;;;18.80;99.90;;;;;;8149024;28;20078;-82
2022/09/25 12:55:54;;;;;;;1.35;1.10;;;17.40;99.90;;;;;;8247353;28;20023;-80
2022/09/25 13:00:19;;;;;;;2.10;1.20;;;16.10;99.90;;;;;;8246870;28;20028;-80
2022/09/25 13:04:33;;;;;;;1.20;0.90;;;15.80;99.90;;;;;;8244943;28;20022;-79
2022/09/25 13:08:49;;;;;;;2.80;1.02;;;15.70;99.90;;;;;;8252421;28;20046;-80
2022/09/25 13:12:51;;;;;;;1.63;0.80;;;15.70;99.90;;;;;;8258031;28;20037;-81
2022/09/25 13:16:51;;;;;;;1.75;0.98;;;15.60;99.90;;;;;;8254663;28;20026;-81
2022/09/25 13:20:53;;;;;;;1.00;0.82;;;15.30;99.90;;;;;;8242204;28;20027;-80
2022/09/25 13:25:04;;;;;;;1.02;0.93;;;15.20;99.90;;;;;;8257770;28;20027;-81
2022/09/25 13:29:28;;;;;;;1.52;1.27;;;15.40;99.90;;;;;;8243333;28;20037;-80
2022/09/25 13:33:33;;;;;;;2.25;1.13;;;15.40;99.90;;;;;;8238080;28;20078;-80
2022/09/25 13:37:36;;;;;;;1.60;1.40;;;15.40;99.90;;;;;;8237991;28;20474;-80
2022/09/25 13:41:52;;;;;;;1.70;1.25;;;15.40;99.90;;;;;;8255504;28;20100;-80
2022/09/25 13:46:32;;;;;;;2.95;1.33;;;15.70;99.90;;;;;;8261083;28;20015;-80
2022/09/25 13:50:38;;;;;;;2.10;1.52;;;15.90;99.90;;;;;;8193718;28;20037;-80
2022/09/25 13:54:38;;;;;;;1.55;1.30;;;16.00;99.90;;;;;;8252025;28;20394;-80
2022/09/25 13:59:14;;;;;;;1.77;1.30;;;16.40;99.90;;;;;;8249602;28;20065;-80
2022/09/25 14:03:36;;;;;;;2.35;1.83;;;16.60;99.90;;;;;;8253982;28;20039;-81
2022/09/25 14:07:39;;;;;;;5.07;2.90;;;16.70;99.90;;;;;;8251601;28;20018;-80
2022/09/25 14:11:49;;;;;;;4.60;2.58;;;16.80;99.90;;;;;;8244793;28;20023;-80
2022/09/25 14:15:53;;;;;;;1.90;1.80;;;17.30;99.90;;;;;;8249829;28;20066;-79
2022/09/25 14:19:56;;;;;;;3.08;2.22;;;17.20;99.90;;;;;;8271272;28;20023;-80
2022/09/25 14:24:11;;;;;;;4.07;2.08;;;17.50;99.90;;;;;;8244130;28;20037;-80
2022/09/25 14:28:27;;;;;;;2.53;2.03;;;19.90;99.90;;;;;;8250954;28;20030;-81
2022/09/25 14:32:34;;;;;;;2.40;2.10;;;23.50;99.90;;;;;;8261860;28;20058;-81
2022/09/25 14:37:00;;;;;;;1.85;1.65;;;24.90;99.90;;;;;;8249892;28;20023;-81
2022/09/25 14:41:24;;;;;;;2.28;2.03;;;23.00;99.90;;;;;;8251421;28;20109;-81
2022/09/25 14:45:49;;;;;;;5.35;2.00;;;20.80;99.90;;;;;;8251321;28;20125;-80
2022/09/25 14:49:52;;;;;;;2.47;2.13;;;19.40;99.90;;;;;;8253192;28;20035;-81
2022/09/25 14:54:04;;;;;;;4.03;2.05;;;18.90;99.90;;;;;;8253407;28;20034;-81
2022/09/25 14:58:14;;;;;;;2.00;1.80;;;19.50;99.90;;;;;;8258642;28;20121;-80
2022/09/25 15:02:32;;;;;;;2.97;1.90;;;20.00;99.90;;;;;;8244688;28;20085;-79
2022/09/25 15:06:38;;;;;;;2.33;2.10;;;20.40;99.90;;;;;;8244930;28;20891;-79
2022/09/25 15:10:39;;;;;;;2.85;1.70;;;19.60;99.90;;;;;;8243700;28;20388;-80
2022/09/25 15:14:39;;;;;;;2.78;1.83;;;18.70;99.90;;;;;;8238504;28;20091;-80
2022/09/25 15:18:43;;;;;;;3.03;1.80;;;17.60;99.90;;;;;;8239650;28;20058;-81
2022/09/25 15:22:48;;;;;;;2.85;2.20;;;16.60;99.90;;;;;;8253183;28;20038;-79
2022/09/25 15:26:53;;;;;;;2.40;1.92;;;16.10;99.90;;;;;;8266365;28;20030;-80
2022/09/25 15:30:57;;;;;;;3.20;2.20;;;15.70;99.90;;;;;;8248074;28;20502;-80
2022/09/25 15:35:17;;;;;;;2.50;2.17;;;15.30;99.90;;;;;;8256198;28;20109;-80
2022/09/25 15:39:25;;;;;;;3.90;2.25;;;15.10;99.90;;;;;;8252743;28;20014;-80
2022/09/25 15:43:25;;;;;;;4.22;2.50;;;15.10;99.90;;;;;;8255471;28;22050;-80
2022/09/25 15:47:48;;;;;;;3.53;2.60;;;14.70;99.90;;;;;;8252972;28;20038;-79
2022/09/25 15:51:59;;;;;;;4.53;2.92;;;14.30;99.90;;;;;;8246485;28;20070;-79
2022/09/25 15:56:20;;;;;;;3.63;3.17;;;13.90;99.90;;;;;;8249959;28;20084;-79
2022/09/25 16:05:07;;;;;;;4.38;3.50;;;13.60;99.90;;;;;;8156743;29;20531;-79
2022/09/25 16:09:22;;;;;;;4.35;3.17;;;13.60;99.90;;;;;;8196582;28;20034;-79
2022/09/25 16:13:24;;;;;;;4.78;2.97;;;13.60;99.90;;;;;;8237589;28;20041;-79
2022/09/25 16:17:40;;;;;;;4.18;3.15;;;13.50;99.90;;;;;;8236907;28;20030;-79
2022/09/25 16:21:40;;;;;;;5.28;3.38;;;13.50;99.90;;;;;;8236614;28;20026;-78
2022/09/25 16:25:44;;;;;;;5.18;3.58;;;13.50;99.90;;;;;;8238579;28;20103;-79
2022/09/25 16:29:45;;;;;;;3.85;3.47;;;13.60;99.90;;;;;;8241539;28;20022;-78
2022/09/25 16:33:49;;;;;;;4.47;3.67;;;13.50;99.90;;;;;;8245371;28;20026;-78
2022/09/25 16:37:51;;;;;;;4.65;4.15;;;13.70;99.90;;;;;;8241167;28;20121;-77
2022/09/25 16:41:52;;;;;;;7.55;5.00;;;14.00;99.90;;;;;;8252436;28;20127;-78
2022/09/25 16:45:59;;;;;;;5.88;4.13;;;14.10;99.90;;;;;;8255246;28;20034;-78
2022/09/25 16:49:59;;;;;;;5.25;4.18;;;14.30;99.90;;;;;;8250271;28;20062;-79
2022/09/25 16:54:00;;;;;;;5.05;4.38;;;14.20;99.90;;;;;;8236447;28;20018;-78
2022/09/25 16:58:02;;;;;;;6.28;4.20;;;14.10;99.90;;;;;;8242890;28;20030;-78
2022/09/25 17:02:19;;;;;;;5.97;4.38;;;14.00;99.90;;;;;;8251946;28;20084;-79
2022/09/25 17:06:22;;;;;;;5.63;4.95;;;13.90;99.90;;;;;;8241046;28;20023;-79
2022/09/25 17:10:25;;;;;;;6.63;4.75;;;13.70;99.90;;;;;;8238997;28;20030;-78
2022/09/25 17:14:27;;;;;;;7.75;5.50;;;13.60;99.90;;;;;;8241467;28;20038;-79
2022/09/25 17:18:28;;;;;;;6.97;5.45;;;13.30;99.90;;;;;;8251637;28;20458;-79
2022/09/25 17:22:29;;;;;;;6.93;5.05;;;13.20;99.90;;;;;;8251888;28;20026;-78
2022/09/25 17:26:29;;;;;;;6.57;5.00;;;13.10;99.90;;;;;;8251980;28;20414;-78
2022/09/25 17:30:30;;;;;;;8.98;5.57;;;13.00;99.90;;;;;;8252918;28;20080;-79
2022/09/25 17:34:30;;;;;;;7.30;5.70;;;12.90;99.90;;;;;;8255462;28;20556;-78
2022/09/25 17:38:32;;;;;;;9.63;5.10;;;13.10;99.90;;;;;;8264810;28;20034;-79
2022/09/25 17:42:33;;;;;;;9.00;5.55;;;12.90;99.90;;;;;;8252874;28;20182;-79
2022/09/25 17:46:34;;;;;;;7.38;5.50;;;12.70;99.90;;;;;;8253469;28;20406;-79
2022/09/25 17:50:35;;;;;;;7.22;5.45;;;12.70;99.90;;;;;;8251798;28;20038;-79
2022/09/25 17:54:36;;;;;;;7.22;5.22;;;12.80;99.90;;;;;;8254285;28;20039;-79
2022/09/25 17:58:37;;;;;;;7.10;5.30;;;12.80;99.90;;;;;;8253712;28;20027;-78
2022/09/25 18:02:38;;;;;;;8.02;5.65;;;12.70;99.90;;;;;;8257412;28;20030;-79
2022/09/25 18:06:42;;;;;;;6.65;5.28;;;12.80;99.90;;;;;;8256147;28;20101;-79
2022/09/25 18:10:43;;;;;;;7.32;5.32;;;12.80;99.90;;;;;;8264483;28;20525;-79
2022/09/25 18:14:44;;;;;;;7.95;5.93;;;12.80;99.90;;;;;;8247646;28;20711;-79
2022/09/25 18:23:04;;;;;;;7.93;5.57;;;12.70;99.90;;;;;;8254125;28;20045;-79
2022/09/25 18:27:05;;;;;;;7.43;5.47;;;12.60;99.90;;;;;;8252463;28;20447;-79
2022/09/25 18:31:06;;;;;;;8.45;5.93;;;12.70;99.90;;;;;;8244460;28;20045;-79
2022/09/25 18:35:07;;;;;;;8.55;5.80;;;12.60;99.90;;;;;;8250318;28;20479;-79
2022/09/25 18:39:08;;;;;;;7.18;5.70;;;12.50;99.90;;;;;;8248617;28;20462;-79
2022/09/25 18:43:09;;;;;;;6.82;5.30;;;12.50;99.90;;;;;;8245942;28;20065;-79
2022/09/25 18:47:10;;;;;;;6.22;5.22;;;12.70;99.90;;;;;;8252298;28;20027;-79
2022/09/25 18:51:11;;;;;;;8.50;6.35;;;12.50;99.90;;;;;;8249746;28;20422;-80
2022/09/25 18:55:11;;;;;;;8.50;6.68;;;12.30;99.90;;;;;;8249495;28;20030;-79
2022/09/25 18:59:12;;;;;;;9.00;6.97;;;12.20;99.90;;;;;;8243299;28;20783;-79
2022/09/25 19:03:12;;;;;;;9.38;6.28;;;12.20;99.90;;;;;;8243317;28;20049;-79
2022/09/25 19:07:14;;;;;;;11.88;7.00;;;12.10;99.90;;;;;;8237111;28;20041;-79
2022/09/25 19:11:14;;;;;;;7.60;6.40;;;12.00;99.90;;;;;;8242266;28;20037;-79
2022/09/25 19:15:16;;;;;;;8.27;6.57;;;12.10;99.90;;;;;;8250417;28;20038;-79
2022/09/25 19:19:17;;;;;;;9.18;6.82;;;12.20;99.90;;;;;;8246180;28;20030;-79
2022/09/25 19:23:19;;;;;;;10.82;7.00;;;12.20;99.90;;;;;;8236538;28;20081;-79
2022/09/25 19:27:20;;;;;;;10.13;7.68;;;12.20;99.90;;;;;;8238594;28;20026;-79
2022/09/25 19:31:22;;;;;;;10.50;7.85;;;12.30;99.90;;;;;;8240500;28;20513;-79
2022/09/25 19:35:23;;;;;;;8.52;7.28;;;12.10;99.90;;;;;;8255435;28;20030;-79
2022/09/25 19:39:24;;;;;;;9.15;6.78;;;12.10;99.90;;;;;;8233323;28;20038;-79
2022/09/25 19:43:24;;;;;;;10.15;7.68;;;11.90;99.90;;;;;;8248267;28;20026;-79
2022/09/25 19:47:25;;;;;;;9.23;6.57;;;11.80;99.90;;;;;;8246914;28;20077;-80
2022/09/25 19:51:26;;;;;;;8.90;6.10;;;11.70;99.90;;;;;;8234835;28;20042;-79
2022/09/25 19:55:26;;;;;;;10.68;6.38;;;11.70;99.90;;;;;;8237207;28;20478;-79
2022/09/25 19:59:27;;;;;;;7.30;5.63;;;11.70;99.90;;;;;;8239654;28;20030;-80
2022/09/25 20:03:28;;;;;;;6.80;5.20;;;11.70;99.90;;;;;;8242001;28;20042;-79
2022/09/25 20:07:28;;;;;;;6.75;5.38;;;11.90;99.90;;;;;;8244455;28;20482;-79
2022/09/25 20:11:31;;;;;;;6.88;5.43;;;11.80;99.90;;;;;;8236646;28;20030;-79
2022/09/25 20:15:32;;;;;;;7.53;5.45;;;11.90;99.90;;;;;;8240300;28;20026;-78
2022/09/25 20:19:33;;;;;;;9.07;6.45;;;11.90;99.90;;;;;;8246031;28;20018;-80
2022/09/25 20:23:34;;;;;;;8.00;5.88;;;11.80;99.90;;;;;;8246557;28;20116;-80
2022/09/25 20:27:35;;;;;;;10.50;6.13;;;11.90;99.90;;;;;;8241437;28;20398;-79
2022/09/25 20:31:38;;;;;;;7.82;6.13;;;12.20;99.90;;;;;;8243086;28;20042;-79
2022/09/25 20:35:38;;;;;;;8.40;5.47;;;12.20;99.90;;;;;;8235284;28;20088;-79
2022/09/25 20:39:39;;;;;;;7.35;5.30;;;12.10;99.90;;;;;;8238819;28;20015;-80
2022/09/25 20:43:40;;;;;;;9.43;5.72;;;12.20;99.90;;;;;;8251366;28;20030;-79
2022/09/25 20:47:40;;;;;;;7.55;5.35;;;12.20;99.90;;;;;;8240291;28;20022;-80
2022/09/25 20:51:41;;;;;;;9.15;6.65;;;12.20;99.90;;;;;;8251460;28;20060;-80
2022/09/25 20:55:41;;;;;;;7.45;6.20;;;11.90;99.90;;;;;;8245190;28;20030;-79
2022/09/25 20:59:42;;;;;;;7.88;6.30;;;11.90;99.90;;;;;;8240775;28;20057;-79
2022/09/25 21:03:45;;;;;;;9.55;6.68;;;12.00;99.90;;;;;;8233951;28;20501;-79
2022/09/25 21:07:46;;;;;;;8.10;6.35;;;11.90;99.90;;;;;;8243678;28;20519;-79
2022/09/25 21:11:47;;;;;;;11.18;6.85;;;12.00;99.90;;;;;;8245379;28;20069;-79
2022/09/25 21:15:48;;;;;;;8.52;6.22;;;12.30;99.90;;;;;;8251196;28;20528;-79
2022/09/25 21:19:48;;;;;;;8.23;6.35;;;12.00;99.90;;;;;;8260345;28;20478;-79
2022/09/25 21:23:52;;;;;;;10.23;6.72;;;11.70;99.90;;;;;;8252958;28;20049;-80
2022/09/25 21:27:53;;;;;;;8.63;6.28;;;11.60;99.90;;;;;;8266841;28;20402;-79